Time,TemperatureF,DewpointF,PressureIn,WindDirection,WindDirectionDegrees,WindSpeedMPH,WindSpeedGustMPH,Humidity,HourlyPrecipIn,Conditions,Clouds,dailyrainin,SoftwareType,DateUTC
2013-02-27 01:01:00,30.0,14.0,-100.00,NE,55,4.0,13.0,52,0.00,,,-99.99,,2013-02-27 07:01:00,
2013-02-27 01:32:00,30.0,15.0,-100.00,NE,45,3.0,16.0,54,0.00,,,-99.99,,2013-02-27 07:32:00,
2013-02-27 01:52:00,30.0,15.0,-100.00,NE,45,3.0,16.0,54,0.00,,,-99.99,,2013-02-27 07:52:00,
2013-02-27 02:01:00,30.0,15.0,-100.00,NE,45,3.0,16.0,54,0.00,,,-99.99,,2013-02-27 08:01:00,
2013-02-27 02:11:00,30.0,15.0,-100.00,NE,45,3.0,16.0,54,0.00,,,-99.99,,2013-02-27 08:11:00,
2013-02-27 02:21:00,30.0,15.0,-100.00,NE,45,3.0,16.0,54,0.00,,,-99.99,,2013-02-27 08:21:00,
2013-02-27 02:53:00,30.0,15.0,-100.00,NE,35,6.0,12.0,54,0.00,,,-99.99,,2013-02-27 08:53:00,
2013-02-27 03:02:00,30.0,15.0,-100.00,NE,35,6.0,12.0,54,0.00,,,-99.99,,2013-02-27 09:02:00,
2013-02-27 03:12:00,30.0,15.0,-100.00,NE,35,6.0,12.0,54,0.00,,,-99.99,,2013-02-27 09:12:00,
2013-02-27 03:22:00,30.0,15.0,-100.00,NE,35,6.0,12.0,54,0.00,,,-99.99,,2013-02-27 09:22:00,
2013-02-27 03:32:00,30.0,15.0,-100.00,NE,35,6.0,12.0,54,0.00,,,-99.99,,2013-02-27 09:32:00,
2013-02-27 03:52:00,30.0,16.0,-100.00,NE,45,5.0,11.0,55,0.00,,,-99.99,,2013-02-27 09:52:00,
2013-02-27 04:01:00,30.0,16.0,-100.00,NE,45,5.0,11.0,55,0.00,,,-99.99,,2013-02-27 10:01:00,
2013-02-27 04:12:00,30.0,16.0,-100.00,NE,45,5.0,11.0,55,0.00,,,-99.99,,2013-02-27 10:12:00,
2013-02-27 04:22:00,30.0,16.0,-100.00,NE,45,5.0,11.0,55,0.00,,,-99.99,,2013-02-27 10:22:00,
2013-02-27 04:32:00,30.0,16.0,-100.00,NE,45,5.0,11.0,55,0.00,,,-99.99,,2013-02-27 10:32:00,
2013-02-27 04:53:00,30.0,16.0,-100.00,North,0,4.0,12.0,56,0.00,,,-99.99,,2013-02-27 10:53:00,
2013-02-27 05:02:00,30.0,16.0,-100.00,North,0,4.0,12.0,56,0.00,,,-99.99,,2013-02-27 11:02:00,
2013-02-27 05:12:00,30.0,16.0,-100.00,North,0,4.0,12.0,56,0.00,,,-99.99,,2013-02-27 11:12:00,
2013-02-27 05:22:00,30.0,16.0,-100.00,North,0,4.0,12.0,56,0.00,,,-99.99,,2013-02-27 11:22:00,
2013-02-27 05:52:00,30.0,17.0,-100.00,North,5,6.0,14.0,59,0.14,,,-99.99,,2013-02-27 11:52:00,
2013-02-27 06:02:00,30.0,17.0,-100.00,North,5,6.0,14.0,59,0.14,,,-99.99,,2013-02-27 12:02:00,
2013-02-27 06:13:00,30.0,17.0,-100.00,North,5,6.0,14.0,59,0.14,,,-99.99,,2013-02-27 12:13:00,
2013-02-27 06:22:00,30.0,17.0,-100.00,North,5,6.0,14.0,59,0.14,,,-99.99,,2013-02-27 12:22:00,
2013-02-27 06:32:00,30.0,17.0,-100.00,North,5,6.0,14.0,59,0.14,,,-99.99,,2013-02-27 12:32:00,
2013-02-27 06:53:00,29.0,20.0,-100.00,North,0,5.0,12.0,70,0.08,,,-99.99,,2013-02-27 12:53:00,
2013-02-27 07:02:00,29.0,20.0,-100.00,North,0,5.0,12.0,70,0.08,,,-99.99,,2013-02-27 13:02:00,
2013-02-27 07:11:00,29.0,20.0,-100.00,North,0,5.0,12.0,70,0.08,,,-99.99,,2013-02-27 13:11:00,
2013-02-27 07:22:00,29.0,20.0,-100.00,North,0,5.0,12.0,70,0.08,,,-99.99,,2013-02-27 13:22:00,
2013-02-27 07:32:00,29.0,20.0,-100.00,North,0,5.0,12.0,70,0.08,,,-99.99,,2013-02-27 13:32:00,
2013-02-27 07:52:00,29.0,22.0,-100.00,NNE,15,7.0,17.0,75,0.07,,,-99.99,,2013-02-27 13:52:00,
2013-02-27 08:02:00,29.0,22.0,-100.00,NNE,15,7.0,17.0,75,0.07,,,-99.99,,2013-02-27 14:02:00,
2013-02-27 08:12:00,29.0,22.0,-100.00,NNE,15,7.0,17.0,75,0.07,,,-99.99,,2013-02-27 14:12:00,
2013-02-27 08:22:00,29.0,22.0,-100.00,NNE,15,7.0,17.0,75,0.07,,,-99.99,,2013-02-27 14:22:00,
2013-02-27 08:32:00,29.0,22.0,-100.00,NNE,15,7.0,17.0,75,0.07,,,-99.99,,2013-02-27 14:32:00,
2013-02-27 08:52:00,30.0,22.0,-100.00,NNE,15,7.0,13.0,70,0.04,,,-99.99,,2013-02-27 14:52:00,
2013-02-27 09:02:00,30.0,22.0,-100.00,NNE,15,7.0,13.0,70,0.04,,,-99.99,,2013-02-27 15:02:00,
2013-02-27 09:12:00,30.0,22.0,-100.00,NNE,15,7.0,13.0,70,0.04,,,-99.99,,2013-02-27 15:12:00,
2013-02-27 09:22:00,30.0,22.0,-100.00,NNE,15,7.0,13.0,70,0.04,,,-99.99,,2013-02-27 15:22:00,
2013-02-27 09:32:00,30.0,22.0,-100.00,NNE,15,7.0,13.0,70,0.04,,,-99.99,,2013-02-27 15:32:00,
2013-02-27 09:52:00,32.0,22.0,-100.00,NNE,25,6.0,17.0,65,0.03,,,-99.99,,2013-02-27 15:52:00,
2013-02-27 10:02:00,32.0,22.0,-100.00,NNE,25,6.0,17.0,65,0.03,,,-99.99,,2013-02-27 16:02:00,
2013-02-27 10:12:00,32.0,22.0,-100.00,NNE,25,6.0,17.0,65,0.03,,,-99.99,,2013-02-27 16:12:00,
2013-02-27 10:22:00,32.0,22.0,-100.00,NNE,25,6.0,17.0,65,0.03,,,-99.99,,2013-02-27 16:22:00,
2013-02-27 10:32:00,32.0,22.0,-100.00,NNE,25,6.0,17.0,65,0.03,,,-99.99,,2013-02-27 16:32:00,
2013-02-27 10:52:00,32.0,20.0,-100.00,NNE,25,4.0,14.0,61,0.03,,,-99.99,,2013-02-27 16:52:00,
2013-02-27 11:02:00,32.0,20.0,-100.00,NNE,25,4.0,14.0,61,0.03,,,-99.99,,2013-02-27 17:02:00,
2013-02-27 11:11:00,32.0,20.0,-100.00,NNE,25,4.0,14.0,61,0.03,,,-99.99,,2013-02-27 17:11:00,
2013-02-27 11:21:00,32.0,20.0,-100.00,NNE,25,4.0,14.0,61,0.03,,,-99.99,,2013-02-27 17:21:00,
2013-02-27 11:32:00,32.0,20.0,-100.00,NNE,25,4.0,14.0,61,0.03,,,-99.99,,2013-02-27 17:32:00,
2013-02-27 11:52:00,33.0,19.0,-100.00,North,10,9.0,21.0,57,0.00,,,-99.99,,2013-02-27 17:52:00,
2013-02-27 12:02:00,33.0,19.0,-100.00,North,10,9.0,21.0,57,0.00,,,-99.99,,2013-02-27 18:02:00,
2013-02-27 12:11:00,33.0,19.0,-100.00,North,10,9.0,21.0,57,0.00,,,-99.99,,2013-02-27 18:11:00,
2013-02-27 12:22:00,33.0,19.0,-100.00,North,10,9.0,21.0,57,0.00,,,-99.99,,2013-02-27 18:22:00,
2013-02-27 12:31:00,34.0,19.0,-100.00,NNE,20,6.0,14.0,54,0.00,,,-99.99,,2013-02-27 18:31:00,
2013-02-27 12:32:00,33.0,19.0,-100.00,North,10,9.0,21.0,57,0.00,,,-99.99,,2013-02-27 18:32:00,
2013-02-27 12:52:00,34.0,19.0,-100.00,NNE,20,6.0,14.0,54,0.00,,,-99.99,,2013-02-27 18:52:00,
2013-02-27 13:01:00,34.0,19.0,-100.00,NNE,20,6.0,14.0,54,0.00,,,-99.99,,2013-02-27 19:01:00,
2013-02-27 13:12:00,34.0,19.0,-100.00,NNE,20,6.0,14.0,54,0.00,,,-99.99,,2013-02-27 19:12:00,
2013-02-27 13:21:00,34.0,19.0,-100.00,NNE,20,6.0,14.0,54,0.00,,,-99.99,,2013-02-27 19:21:00,
2013-02-27 13:52:00,34.0,19.0,-100.00,NNE,15,5.0,14.0,53,0.00,,,-99.99,,2013-02-27 19:52:00,
2013-02-27 14:01:00,34.0,19.0,-100.00,NNE,15,5.0,14.0,53,0.00,,,-99.99,,2013-02-27 20:01:00,
2013-02-27 14:12:00,34.0,19.0,-100.00,NNE,15,5.0,14.0,53,0.00,,,-99.99,,2013-02-27 20:12:00,
2013-02-27 14:21:00,34.0,19.0,-100.00,NNE,15,5.0,14.0,53,0.00,,,-99.99,,2013-02-27 20:21:00,
2013-02-27 14:32:00,34.0,19.0,-100.00,NNE,15,5.0,14.0,53,0.00,,,-99.99,,2013-02-27 20:32:00,
2013-02-27 14:52:00,35.0,21.0,-100.00,NNE,15,7.0,16.0,57,0.13,,,-99.99,,2013-02-27 20:52:00,
2013-02-27 15:02:00,35.0,21.0,-100.00,NNE,15,7.0,16.0,57,0.13,,,-99.99,,2013-02-27 21:02:00,
2013-02-27 15:11:00,35.0,21.0,-100.00,NNE,15,7.0,16.0,57,0.13,,,-99.99,,2013-02-27 21:11:00,
2013-02-27 15:22:00,35.0,21.0,-100.00,NNE,15,7.0,16.0,57,0.13,,,-99.99,,2013-02-27 21:22:00,
2013-02-27 15:32:00,35.0,21.0,-100.00,NNE,15,7.0,16.0,57,0.13,,,-99.99,,2013-02-27 21:32:00,
2013-02-27 15:52:00,34.0,23.0,-100.00,North,0,4.0,15.0,65,0.03,,,-99.99,,2013-02-27 21:52:00,
2013-02-27 16:01:00,34.0,23.0,-100.00,North,0,4.0,15.0,65,0.03,,,-99.99,,2013-02-27 22:01:00,
2013-02-27 16:11:00,34.0,23.0,-100.00,North,0,4.0,15.0,65,0.03,,,-99.99,,2013-02-27 22:11:00,
2013-02-27 16:21:00,34.0,23.0,-100.00,North,0,4.0,15.0,65,0.03,,,-99.99,,2013-02-27 22:21:00,
2013-02-27 16:31:00,34.0,23.0,-100.00,North,0,4.0,15.0,65,0.03,,,-99.99,,2013-02-27 22:31:00,
2013-02-27 17:01:00,33.0,23.0,-100.00,North,0,7.0,16.0,67,0.08,,,-99.99,,2013-02-27 23:01:00,
2013-02-27 17:11:00,33.0,23.0,-100.00,North,0,7.0,16.0,67,0.08,,,-99.99,,2013-02-27 23:11:00,
2013-02-27 17:21:00,33.0,23.0,-100.00,North,0,7.0,16.0,67,0.08,,,-99.99,,2013-02-27 23:21:00,
2013-02-27 17:32:00,33.0,23.0,-100.00,North,0,7.0,16.0,67,0.08,,,-99.99,,2013-02-27 23:32:00,
2013-02-27 17:53:00,32.0,24.0,-100.00,North,0,5.0,9.0,73,0.01,,,-99.99,,2013-02-27 23:53:00,
2013-02-27 18:02:00,32.0,24.0,-100.00,North,0,5.0,9.0,73,0.01,,,-99.99,,2013-02-28 00:02:00,
2013-02-27 18:12:00,32.0,24.0,-100.00,North,0,5.0,9.0,73,0.01,,,-99.99,,2013-02-28 00:12:00,
2013-02-27 18:21:00,32.0,24.0,-100.00,North,0,5.0,9.0,73,0.01,,,-99.99,,2013-02-28 00:21:00,
2013-02-27 18:31:00,31.0,23.0,-100.00,NNE,25,6.0,14.0,72,0.00,,,-99.99,,2013-02-28 00:31:00,
2013-02-27 18:52:00,31.0,23.0,-100.00,NNE,25,6.0,14.0,72,0.00,,,-99.99,,2013-02-28 00:52:00,
2013-02-27 19:01:00,31.0,23.0,-100.00,NNE,25,6.0,14.0,72,0.00,,,-99.99,,2013-02-28 01:01:00,
2013-02-27 19:11:00,31.0,23.0,-100.00,NNE,25,6.0,14.0,72,0.00,,,-99.99,,2013-02-28 01:11:00,
2013-02-27 19:21:00,31.0,23.0,-100.00,NNE,25,6.0,14.0,72,0.00,,,-99.99,,2013-02-28 01:21:00,
2013-02-27 19:52:00,31.0,23.0,-100.00,NNE,20,7.0,14.0,73,0.00,,,-99.99,,2013-02-28 01:52:00,
2013-02-27 20:01:00,31.0,23.0,-100.00,NNE,20,7.0,14.0,73,0.00,,,-99.99,,2013-02-28 02:01:00,
2013-02-27 20:11:00,31.0,23.0,-100.00,NNE,20,7.0,14.0,73,0.00,,,-99.99,,2013-02-28 02:11:00,
2013-02-27 20:22:00,31.0,23.0,-100.00,NNE,20,7.0,14.0,73,0.00,,,-99.99,,2013-02-28 02:22:00,
2013-02-27 20:31:00,31.0,23.0,-100.00,NNE,20,7.0,14.0,73,0.00,,,-99.99,,2013-02-28 02:31:00,
2013-02-27 21:01:00,31.0,23.0,-100.00,NNE,15,7.0,12.0,72,0.00,,,-99.99,,2013-02-28 03:01:00,
2013-02-27 21:11:00,31.0,23.0,-100.00,NNE,15,7.0,12.0,72,0.00,,,-99.99,,2013-02-28 03:11:00,
2013-02-27 21:21:00,31.0,23.0,-100.00,NNE,15,7.0,12.0,72,0.00,,,-99.99,,2013-02-28 03:21:00,
2013-02-27 21:32:00,31.0,23.0,-100.00,NNE,15,7.0,12.0,72,0.00,,,-99.99,,2013-02-28 03:32:00,
2013-02-27 21:52:00,31.0,22.0,-100.00,North,0,6.0,12.0,69,0.07,,,-99.99,,2013-02-28 03:52:00,
2013-02-27 22:02:00,31.0,22.0,-100.00,North,0,6.0,12.0,69,0.07,,,-99.99,,2013-02-28 04:02:00,
2013-02-27 22:11:00,31.0,22.0,-100.00,North,0,6.0,12.0,69,0.07,,,-99.99,,2013-02-28 04:11:00,
2013-02-27 22:21:00,31.0,22.0,-100.00,North,0,6.0,12.0,69,0.07,,,-99.99,,2013-02-28 04:21:00,
2013-02-27 22:32:00,31.0,22.0,-100.00,North,0,6.0,12.0,69,0.07,,,-99.99,,2013-02-28 04:32:00,
2013-02-27 22:52:00,31.0,21.0,-100.00,NNE,30,5.0,17.0,67,0.00,,,-99.99,,2013-02-28 04:52:00,
2013-02-27 23:01:00,31.0,21.0,-100.00,NNE,15,7.0,16.0,67,0.00,,,-99.99,,2013-02-28 05:01:00,
2013-02-27 23:11:00,31.0,21.0,-100.00,NNE,15,7.0,16.0,67,0.00,,,-99.99,,2013-02-28 05:11:00,
2013-02-27 23:22:00,31.0,21.0,-100.00,NNE,15,7.0,16.0,67,0.00,,,-99.99,,2013-02-28 05:22:00,
2013-02-27 23:31:00,31.0,21.0,-100.00,NNE,15,7.0,16.0,67,0.00,,,-99.99,,2013-02-28 05:31:00,
2013-02-27 23:52:00,31.0,19.0,-100.00,NNE,20,7.0,14.0,61,0.00,,,-99.99,,2013-02-28 05:52:00,